Melrose, MA

12:44 PM EDT on September 05, 2015 (GMT -0400)
East Milton | | Change Station
CLOSE
Current Station
Airport
Location: East Milton,
Elevation: 630 ft
Nearby Weather Stations

Elev 630 ft 42.21 °N, 71.11 °W | Updated 50 minutes ago

Clear
Clear
72 °F
Feels Like 72 °F
N
5
Wind Variable Wind from Variable
Gusts mph

Today
High -- | Low -- °F
--% Chance of Precip.
Yesterday
High -- | Low -- °F
Precip. -- in
6:13 AM 7:11 PM
Waning Gibbous, 47% visible
Pressure 30.31 in
Visibility -9999.0 miles
Clouds
Dew Point 49 °F
Humidity 44%
Rainfall 0.00 in
Snow Depth Not available.
UV Not available.
Pollen 8.50 out of 12
Air Quality Not available.
Flu Activity Not available.
METAR KMQE 051554Z AUTO VRB04KT 22/09 A3028 RMK AO1 SLP262 T02220094
Pressure 30.31 in
Visibility -9999.0 miles
Clouds
Dew Point 49 °F
Humidity 44%
Rainfall 0.00 in
Snow Depth Not available.
UV Not available.
Pollen 8.50 out of 12
Air Quality Not available.
Flu Activity Not available.
METAR KMQE 051554Z AUTO VRB04KT 22/09 A3028 RMK AO1 SLP262 T02220094

10-Day Weather Forecast

×

Almanac

Astronomy

Sep. 05, 2015 Rise Set
Actual Time
Civil Twilight
Nautical Twilight
Astronomical Twilight
Moon
Length of Visible Light
Length of Day
Tomorrow will be .
, % of the Moon is Illuminated

Today's Extremes

State Highs State Lows

Community

WunderPhotos

Upload Photos

1,852,498 photos uploaded!

WunderBlogs® & News

Nearby

Air Quality

  Air Quality AQ Index Pollutant
Not available.

Snow Depth

Station Depth Elevation

Earthquake Activity

City Distance Mag. Time & Date
Minimum magnitude displayed is 2.5.

Coastal Water Temperatures

Place Temperature

Stations

Nearby Weather Stations

Station Location Temp. Windchill Dew Point Humidity Wind Precip. Elev Updated Type